Time;durP1;ratioP1;P1;durP2;ratioP2;P2;SDS_P1;SDS_P2;PMS_P1;PMS_P2;Temp;Humidity;BMP_temperature;BMP_pressure;BME280_temperature;BME280_humidity;BME280_pressure;Samples;Min_cycle;Max_cycle;Signal;HPM_P1;HPM_P2
2022/03/08 00:00:24;;;;;;;16.73;6.32;;;;;;;-2.73;100.00;99401.91;4367834;32;20135;-79
2022/03/08 00:03:07;;;;;;;27.25;6.37;;;;;;;-2.81;100.00;99399.22;4368947;32;20059;-79
2022/03/08 00:05:33;;;;;;;20.27;6.28;;;;;;;-2.75;100.00;99417.06;4368916;32;20058;-79
2022/03/08 00:08:00;;;;;;;20.27;6.57;;;;;;;-2.99;100.00;99379.00;4368007;32;20043;-79
2022/03/08 00:10:27;;;;;;;27.25;7.95;;;;;;;-3.00;100.00;99369.47;4355095;32;20180;-79
2022/03/08 00:12:54;;;;;;;31.67;7.90;;;;;;;-2.78;100.00;99414.75;4356877;32;20073;-79
2022/03/08 00:19:02;;;;;;;27.35;8.15;;;;;;;-2.72;100.00;99437.84;4369113;32;20028;-79
2022/03/08 00:21:28;;;;;;;45.33;10.77;;;;;;;-3.18;100.00;99355.50;4367347;32;20385;-78
2022/03/08 00:23:58;;;;;;;33.50;10.30;;;;;;;-2.85;100.00;99421.63;4370034;32;20097;-77
2022/03/08 00:26:24;;;;;;;24.50;9.95;;;;;;;-2.75;100.00;99432.88;4368956;32;20065;-76
2022/03/08 00:28:52;;;;;;;30.30;9.88;;;;;;;-3.21;100.00;99355.81;4369921;32;20091;-77
2022/03/08 00:31:18;;;;;;;33.80;9.20;;;;;;;-2.85;100.00;99430.34;4367652;32;20047;-76
2022/03/08 00:33:44;;;;;;;29.35;8.52;;;;;;;-3.16;100.00;99390.41;4352598;32;20027;-78
2022/03/08 00:36:11;;;;;;;33.88;10.35;;;;;;;-3.13;100.00;99405.91;4357350;32;20067;-77
2022/03/08 00:38:37;;;;;;;36.40;10.60;;;;;;;-2.89;100.00;99444.78;4369083;32;20085;-77
2022/03/08 00:41:04;;;;;;;34.45;12.25;;;;;;;-3.09;100.00;99412.53;4356545;32;20069;-77
2022/03/08 00:43:31;;;;;;;33.20;12.70;;;;;;;-2.93;100.00;99439.00;4373008;32;20410;-78
2022/03/08 00:45:57;;;;;;;32.45;10.85;;;;;;;-2.95;100.00;99440.97;4374145;32;20149;-77
2022/03/08 00:48:23;;;;;;;38.20;10.80;;;;;;;-2.90;100.00;99458.13;4374891;32;20100;-77
2022/03/08 00:50:51;;;;;;;38.38;10.25;;;;;;;-3.12;100.00;99423.38;4355845;32;20075;-77
2022/03/08 00:53:17;;;;;;;41.60;11.50;;;;;;;-2.93;100.00;99460.09;4369704;32;20425;-76
2022/03/08 00:55:44;;;;;;;27.67;10.30;;;;;;;-2.95;100.00;99459.41;4368829;32;20065;-78
2022/03/08 00:58:11;;;;;;;27.77;10.45;;;;;;;-3.12;100.00;99447.09;4368249;32;20250;-77
2022/03/08 01:00:38;;;;;;;37.90;11.00;;;;;;;-3.33;100.00;99416.63;4368937;32;20047;-80
2022/03/08 01:03:05;;;;;;;37.35;11.25;;;;;;;-3.13;100.00;99454.19;4355173;32;20057;-80
2022/03/08 01:05:33;;;;;;;34.75;11.15;;;;;;;-3.06;100.00;99456.19;4369256;32;20047;-80
2022/03/08 01:08:00;;;;;;;36.28;10.45;;;;;;;-3.35;100.00;99392.25;4368753;32;20153;-81
2022/03/08 01:10:28;;;;;;;31.35;10.00;;;;;;;-3.33;100.00;99400.81;4356757;32;20086;-81
2022/03/08 01:12:56;;;;;;;33.65;10.30;;;;;;;-3.32;100.00;99388.47;4355170;32;20043;-80
2022/03/08 01:15:24;;;;;;;30.45;11.43;;;;;;;-2.99;100.00;99444.87;4370161;32;20380;-80
2022/03/08 01:17:52;;;;;;;33.33;10.75;;;;;;;-3.22;100.00;99396.28;4353884;32;20040;-80
2022/03/08 01:20:19;;;;;;;33.53;11.82;;;;;;;-3.00;100.00;99435.34;4369576;32;20061;-80
2022/03/08 01:22:46;;;;;;;36.85;10.57;;;;;;;-3.35;100.00;99380.84;4353885;32;20039;-80
2022/03/08 01:25:15;;;;;;;29.65;10.82;;;;;;;-3.04;100.00;99431.34;4356641;32;20032;-79
2022/03/08 01:27:42;;;;;;;33.17;10.07;;;;;;;-3.06;100.00;99425.41;4366466;32;20058;-77
2022/03/08 01:30:11;;;;;;;28.98;9.95;;;;;;;-3.19;100.00;99409.16;4355817;32;20242;-77
2022/03/08 01:32:38;;;;;;;22.60;8.75;;;;;;;-3.12;100.00;99433.91;4367911;32;20047;-77
2022/03/08 01:35:05;;;;;;;44.35;12.60;;;;;;;-3.23;100.00;99434.16;4367981;32;20047;-77
2022/03/08 01:37:31;;;;;;;34.15;10.90;;;;;;;-3.56;100.00;99381.16;4369000;32;20043;-77
2022/03/08 01:39:58;;;;;;;27.30;10.32;;;;;;;-3.28;100.00;99445.94;4366647;32;20081;-77
2022/03/08 01:42:25;;;;;;;32.15;8.38;;;;;;;-3.28;100.00;99440.69;4368911;32;20081;-77
2022/03/08 01:44:52;;;;;;;23.02;9.70;;;;;;;-3.31;100.00;99435.72;4367278;32;20396;-79
2022/03/08 01:47:22;;;;;;;31.23;8.95;;;;;;;-3.27;100.00;99441.53;4370263;32;20082;-79
2022/03/08 01:49:50;;;;;;;27.60;10.77;;;;;;;-3.61;100.00;99370.28;4366331;32;20068;-80
2022/03/08 01:52:21;;;;;;;32.53;11.10;;;;;;;-3.16;100.00;99448.34;4368567;32;20152;-81
2022/03/08 01:54:48;;;;;;;30.02;9.93;;;;;;;-3.69;100.00;99337.63;4368607;32;20044;-80
2022/03/08 01:57:15;;;;;;;35.53;10.80;;;;;;;-3.02;100.00;99442.56;4355058;32;20054;-80
2022/03/08 01:59:42;;;;;;;34.75;9.45;;;;;;;-3.34;100.00;99396.50;4353541;32;20043;-79
2022/03/08 02:02:10;;;;;;;25.15;9.32;;;;;;;-3.00;100.00;99448.53;4366966;32;20211;-79
2022/03/08 02:04:37;;;;;;;23.17;8.45;;;;;;;-3.00;100.00;99445.88;4372036;32;20116;-80
2022/03/08 02:07:04;;;;;;;30.83;9.32;;;;;;;-3.08;100.00;99422.06;4354430;32;20062;-80
2022/03/08 02:09:31;;;;;;;29.33;9.35;;;;;;;-3.00;100.00;99437.13;4363336;32;20068;-79
2022/03/08 02:11:58;;;;;;;32.42;9.57;;;;;;;-3.03;100.00;99430.37;4368956;32;20052;-78
2022/03/08 02:14:26;;;;;;;23.77;9.32;;;;;;;-3.06;100.00;99428.03;4357792;32;20051;-80
2022/03/08 02:16:53;;;;;;;32.72;9.43;;;;;;;-3.04;100.00;99417.34;4371320;32;20385;-79
2022/03/08 02:19:19;;;;;;;39.95;10.88;;;;;;;-3.04;100.00;99423.44;4371875;32;20485;-78
2022/03/08 02:21:46;;;;;;;29.98;10.32;;;;;;;-3.36;100.00;99366.06;4370798;32;20047;-78
2022/03/08 02:24:12;;;;;;;33.28;11.82;;;;;;;-3.30;100.00;99368.09;4356539;32;20054;-79
2022/03/08 02:26:39;;;;;;;29.05;9.60;;;;;;;-3.00;100.00;99416.91;4358632;32;20052;-79
2022/03/08 02:29:08;;;;;;;33.30;9.07;;;;;;;-3.28;100.00;99356.41;4372184;32;20065;-80
2022/03/08 02:31:35;;;;;;;30.73;9.65;;;;;;;-3.14;100.00;99383.19;4371488;32;20039;-77
2022/03/08 02:34:03;;;;;;;26.80;9.07;;;;;;;-3.16;100.00;99385.13;4370961;32;20043;-79
2022/03/08 02:36:30;;;;;;;26.55;9.13;;;;;;;-2.75;100.00;99438.16;4370591;32;20081;-79
2022/03/08 02:38:56;;;;;;;33.83;12.68;;;;;;;-3.23;100.00;99347.22;4372366;32;20862;-80
2022/03/08 02:41:24;;;;;;;34.03;10.55;;;;;;;-2.71;100.00;99436.87;4371829;32;20047;-78
2022/03/08 02:43:51;;;;;;;34.67;11.82;;;;;;;-3.15;100.00;99349.91;4371442;32;20430;-79
2022/03/08 02:46:17;;;;;;;33.80;10.95;;;;;;;-2.95;100.00;99388.28;4370486;32;20065;-79
2022/03/08 02:48:44;;;;;;;35.15;11.70;;;;;;;-2.58;100.00;99437.28;4370177;32;20154;-79
2022/03/08 02:51:11;;;;;;;32.78;11.27;;;;;;;-2.64;100.00;99432.62;4356167;32;20073;-78
2022/03/08 02:53:37;;;;;;;33.42;10.90;;;;;;;-2.59;100.00;99435.63;4371120;32;20434;-79
2022/03/08 02:56:04;;;;;;;27.65;11.38;;;;;;;-2.50;100.00;99443.63;4356292;32;20032;-79
2022/03/08 02:58:30;;;;;;;28.60;8.65;;;;;;;-2.42;100.00;99446.28;4371630;32;20073;-79
2022/03/08 03:00:57;;;;;;;27.67;8.50;;;;;;;-2.73;100.00;99396.66;4370643;32;20047;-77
2022/03/08 03:03:23;;;;;;;27.15;9.32;;;;;;;-2.88;100.00;99369.22;4357840;32;20680;-79
2022/03/08 03:05:50;;;;;;;26.70;9.27;;;;;;;-2.98;100.00;99349.06;4358415;32;20095;-80
2022/03/08 03:08:16;;;;;;;25.05;8.13;;;;;;;-2.34;100.00;99448.97;4358486;32;20027;-79
2022/03/08 03:10:43;;;;;;;23.92;8.93;;;;;;;-2.64;100.00;99390.44;4371657;32;20055;-78
2022/03/08 03:13:09;;;;;;;19.52;7.35;;;;;;;-2.71;100.00;99389.44;4360982;32;20166;-78
2022/03/08 03:15:36;;;;;;;19.27;6.22;;;;;;;-2.37;100.00;99444.81;4384587;32;20146;-79
2022/03/08 03:18:08;;;;;;;19.80;7.28;;;;;;;-2.40;100.00;99450.41;4372197;32;20071;-80
2022/03/08 03:20:34;;;;;;;;;;;;;;;-2.35;100.00;99455.22;4358018;32;20047;-78
2022/03/08 03:23:01;;;;;;;22.37;6.43;;;;;;;-2.33;100.00;99455.91;4370205;32;20311;-79
2022/03/08 03:25:27;;;;;;;18.87;6.95;;;;;;;-2.29;100.00;99457.25;4369087;32;20065;-78
2022/03/08 03:27:54;;;;;;;18.87;6.53;;;;;;;-2.33;100.00;99450.63;4357233;32;20073;-80
2022/03/08 03:30:20;;;;;;;18.52;7.22;;;;;;;-2.68;100.00;99399.66;4357488;32;20097;-78
2022/03/08 03:32:47;;;;;;;20.73;6.50;;;;;;;-2.67;100.00;99400.47;4371339;32;20347;-78
2022/03/08 03:35:14;;;;;;;26.37;6.85;;;;;;;-2.58;100.00;99416.19;4356151;32;20404;-77
2022/03/08 03:37:41;;;;;;;18.02;5.97;;;;;;;-2.61;100.00;99408.59;4370404;32;20105;-77
2022/03/08 03:40:08;;;;;;;18.83;7.15;;;;;;;-2.29;100.00;99445.88;4357774;32;20055;-77
2022/03/08 03:42:42;;;;;;;21.02;6.85;;;;;;;-2.23;100.00;99467.16;4358507;32;20079;-77
2022/03/08 03:45:09;;;;;;;20.52;6.68;;;;;;;-2.54;100.00;99421.16;4369016;32;20753;-77
2022/03/08 03:47:36;;;;;;;21.17;5.93;;;;;;;-2.20;100.00;99466.87;4356850;32;20051;-77
2022/03/08 03:50:05;;;;;;;17.83;6.15;;;;;;;-2.52;100.00;99421.81;4356196;32;20069;-77
2022/03/08 03:52:32;;;;;;;15.18;5.57;;;;;;;-2.50;100.00;99417.25;4370607;32;20109;-78
2022/03/08 03:54:59;;;;;;;15.70;5.60;;;;;;;-2.49;100.00;99413.59;4369263;32;20043;-78
2022/03/08 03:57:25;;;;;;;15.65;5.25;;;;;;;-2.66;100.00;99391.59;4357222;32;20061;-78
2022/03/08 03:59:52;;;;;;;21.67;7.07;;;;;;;-2.50;100.00;99418.06;4368027;32;20047;-78
2022/03/08 04:02:19;;;;;;;13.65;5.62;;;;;;;-2.19;100.00;99472.97;4369639;32;20073;-77
2022/03/08 04:04:53;;;;;;;13.25;4.85;;;;;;;-2.22;100.00;99473.25;4357866;32;20094;-77
2022/03/08 04:07:19;;;;;;;21.80;7.30;;;;;;;-2.50;100.00;99427.78;4357572;32;20028;-77
2022/03/08 04:09:46;;;;;;;21.15;5.87;;;;;;;-2.43;100.00;99434.09;4353680;32;20053;-78
2022/03/08 04:12:12;;;;;;;18.60;6.37;;;;;;;-2.44;100.00;99442.97;4357203;32;20042;-80
2022/03/08 04:14:39;;;;;;;15.23;5.85;;;;;;;-2.10;100.00;99492.31;4357246;32;20409;-80
2022/03/08 04:17:05;;;;;;;13.65;4.68;;;;;;;-2.65;100.00;99404.63;4357148;32;20069;-80
2022/03/08 04:19:32;;;;;;;18.37;5.78;;;;;;;-2.44;100.00;99438.53;4362999;32;20036;-80
2022/03/08 04:21:59;;;;;;;15.75;5.50;;;;;;;-2.07;100.00;99489.38;4355916;32;20097;-80
2022/03/08 04:24:27;;;;;;;15.00;5.28;;;;;;;-2.09;100.00;99496.59;4370017;32;20053;-80
2022/03/08 04:26:53;;;;;;;19.17;5.82;;;;;;;-2.09;100.00;99494.78;4355386;32;20036;-81
2022/03/08 04:29:20;;;;;;;15.07;6.22;;;;;;;-2.18;100.00;99479.91;4355397;32;20066;-81
2022/03/08 04:31:47;;;;;;;17.77;6.55;;;;;;;-2.63;100.00;99413.19;4370251;32;20352;-78
2022/03/08 04:34:13;;;;;;;17.92;6.53;;;;;;;-2.06;100.00;99488.38;4354868;32;20023;-79
2022/03/08 04:36:40;;;;;;;21.73;7.43;;;;;;;-2.34;100.00;99432.34;4369995;32;20087;-81
2022/03/08 04:39:06;;;;;;;16.52;6.68;;;;;;;-2.44;100.00;99422.72;4371027;32;20385;-80
2022/03/08 04:41:33;;;;;;;12.55;5.95;;;;;;;-2.09;100.00;99483.41;4357735;32;20039;-79
2022/03/08 04:44:00;;;;;;;17.25;7.68;;;;;;;-2.03;100.00;99488.91;4368674;32;20079;-79
2022/03/08 04:46:27;;;;;;;10.57;5.72;;;;;;;-2.35;100.00;99442.03;4355278;32;20125;-79
2022/03/08 04:48:53;;;;;;;13.02;5.90;;;;;;;-2.12;100.00;99483.72;4371049;32;20325;-80
2022/03/08 04:51:19;;;;;;;21.42;7.00;;;;;;;-2.14;100.00;99480.41;4371040;32;20027;-79
2022/03/08 04:53:46;;;;;;;16.77;6.05;;;;;;;-2.45;100.00;99433.41;4371893;32;20043;-79
2022/03/08 04:56:13;;;;;;;21.85;6.72;;;;;;;-2.15;100.00;99499.84;4367673;32;20035;-79
2022/03/08 04:58:39;;;;;;;16.60;5.78;;;;;;;-2.40;100.00;99470.69;4371560;32;20604;-78
2022/03/08 05:01:07;;;;;;;20.95;7.35;;;;;;;-2.51;100.00;99463.03;4367968;32;20061;-79
2022/03/08 05:03:33;;;;;;;18.08;6.10;;;;;;;-2.39;100.00;99480.28;4355876;32;20031;-78
2022/03/08 05:05:59;;;;;;;28.23;7.45;;;;;;;-2.53;100.00;99449.19;4351819;32;20078;-78
2022/03/08 05:08:26;;;;;;;20.48;6.37;;;;;;;-2.64;100.00;99427.34;4354678;32;20057;-78
2022/03/08 05:10:52;;;;;;;16.08;6.87;;;;;;;-2.61;100.00;99442.88;4369044;32;20086;-78
2022/03/08 05:13:19;;;;;;;18.48;7.00;;;;;;;-2.27;100.00;99492.19;4370645;32;20057;-79
2022/03/08 05:15:48;;;;;;;20.17;7.65;;;;;;;-2.46;100.00;99455.47;4369142;32;20389;-80
2022/03/08 05:18:16;;;;;;;13.98;6.15;;;;;;;-2.14;100.00;99506.78;4370396;32;20039;-79
2022/03/08 05:20:43;;;;;;;16.98;6.57;;;;;;;-2.16;100.00;99503.50;4368043;32;20064;-80
2022/03/08 05:23:09;;;;;;;14.48;6.35;;;;;;;-2.28;100.00;99472.09;4356470;32;20040;-78
2022/03/08 05:25:36;;;;;;;19.08;7.62;;;;;;;-2.48;100.00;99436.37;4366827;32;20032;-79
2022/03/08 05:28:03;;;;;;;20.98;8.52;;;;;;;-2.04;100.00;99503.06;4370474;32;20044;-78
2022/03/08 05:30:29;;;;;;;15.18;6.65;;;;;;;-2.04;100.00;99505.72;4367988;32;20086;-78
2022/03/08 05:32:56;;;;;;;24.33;7.43;;;;;;;-2.13;100.00;99511.09;4367491;32;20075;-78
2022/03/08 05:35:22;;;;;;;21.12;8.35;;;;;;;-2.16;100.00;99509.59;4370127;32;20031;-77
2022/03/08 05:37:49;;;;;;;16.75;6.32;;;;;;;-2.11;100.00;99503.84;4358542;32;20034;-77
2022/03/08 05:40:15;;;;;;;25.40;8.90;;;;;;;-2.48;100.00;99452.19;4361452;32;20053;-78
2022/03/08 05:42:43;;;;;;;21.42;7.40;;;;;;;-2.09;100.00;99522.97;4363680;32;20115;-75
2022/03/08 05:45:11;;;;;;;21.50;8.90;;;;;;;-2.12;100.00;99518.00;4372569;32;20475;-74
2022/03/08 05:47:39;;;;;;;20.62;9.45;;;;;;;-2.39;100.00;99467.91;4371241;32;20045;-80
2022/03/08 05:50:09;;;;;;;29.33;9.02;;;;;;;-1.99;100.00;99526.34;4371895;32;20451;-80
2022/03/08 05:52:36;;;;;;;32.60;11.10;;;;;;;-2.16;100.00;99511.41;4368934;32;20422;-80
2022/03/08 05:55:04;;;;;;;21.70;8.40;;;;;;;-2.11;100.00;99530.22;4372752;32;20047;-80
2022/03/08 05:57:30;;;;;;;31.60;10.02;;;;;;;-2.07;100.00;99544.78;4359414;32;20075;-79
2022/03/08 05:59:57;;;;;;;22.73;7.72;;;;;;;-2.19;100.00;99533.63;4371972;32;20421;-77
2022/03/08 06:02:24;;;;;;;24.80;8.07;;;;;;;-2.06;100.00;99541.97;4374650;32;20035;-81
2022/03/08 06:04:50;;;;;;;26.48;9.45;;;;;;;-2.10;100.00;99537.16;4358058;32;20047;-80
2022/03/08 06:07:17;;;;;;;18.60;8.10;;;;;;;-2.29;100.00;99499.44;4357247;32;20475;-78
2022/03/08 06:09:44;;;;;;;20.08;7.85;;;;;;;-2.26;100.00;99493.88;4355883;32;20255;-76
2022/03/08 06:12:11;;;;;;;23.50;9.50;;;;;;;-2.18;100.00;99492.28;4360650;32;20032;-80
2022/03/08 06:14:38;;;;;;;19.77;7.50;;;;;;;-1.91;100.00;99544.88;4354452;32;20114;-79
2022/03/08 06:17:06;;;;;;;23.60;8.60;;;;;;;-2.22;100.00;99504.91;4356808;32;20835;-76
2022/03/08 06:19:34;;;;;;;21.90;7.57;;;;;;;-2.12;100.00;99516.22;4357531;32;20065;-77
2022/03/08 06:22:00;;;;;;;25.02;8.13;;;;;;;-2.26;100.00;99485.94;4355800;32;20087;-76
2022/03/08 06:24:27;;;;;;;23.73;8.55;;;;;;;-1.94;100.00;99545.19;4340755;33;20032;-77
2022/03/08 06:26:54;;;;;;;26.02;8.60;;;;;;;-1.89;100.00;99542.88;4341577;33;20035;-75
2022/03/08 06:29:20;;;;;;;25.73;10.02;;;;;;;-2.10;100.00;99529.25;4343027;33;20023;-76
2022/03/08 06:31:47;;;;;;;36.10;11.65;;;;;;;-2.03;100.00;99548.75;4342481;33;20028;-76
2022/03/08 06:34:13;;;;;;;28.83;11.12;;;;;;;-2.35;100.00;99494.78;4355089;32;20036;-76
2022/03/08 06:36:41;;;;;;;25.27;10.07;;;;;;;-2.27;100.00;99500.09;4339746;32;20067;-79
2022/03/08 06:39:08;;;;;;;32.05;10.57;;;;;;;-2.22;100.00;99507.56;4355582;32;20175;-77
2022/03/08 06:41:34;;;;;;;24.12;9.35;;;;;;;-1.95;100.00;99559.34;4355434;32;20197;-76
2022/03/08 06:44:02;;;;;;;21.48;8.82;;;;;;;-2.50;100.00;99497.16;4356394;32;20072;-77
2022/03/08 06:46:29;;;;;;;22.73;9.88;;;;;;;-2.04;100.00;99560.31;4346196;32;20073;-76
2022/03/08 06:48:56;;;;;;;25.10;10.15;;;;;;;-2.03;100.00;99564.56;4350678;32;20054;-76
2022/03/08 06:51:23;;;;;;;29.33;9.60;;;;;;;-2.13;100.00;99563.88;4355247;32;20048;-77
2022/03/08 06:53:49;;;;;;;17.05;8.25;;;;;;;-2.30;100.00;99523.34;4355302;32;20223;-77
2022/03/08 06:56:16;;;;;;;33.45;10.38;;;;;;;-2.38;100.00;99532.03;4342358;33;20023;-77
2022/03/08 06:58:43;;;;;;;28.98;11.85;;;;;;;-2.01;100.00;99578.44;4353821;32;20360;-78
2022/03/08 07:01:09;;;;;;;23.83;9.35;;;;;;;-2.22;100.00;99532.16;4354259;32;20297;-77
2022/03/08 07:03:36;;;;;;;23.33;7.55;;;;;;;-2.17;100.00;99544.03;4348896;32;20073;-75
2022/03/08 07:06:05;;;;;;;25.62;9.98;;;;;;;-2.68;100.00;99462.09;4368417;32;20044;-75
2022/03/08 07:08:31;;;;;;;32.35;11.05;;;;;;;-2.01;100.00;99581.09;4368736;32;20104;-75
2022/03/08 07:10:58;;;;;;;20.62;8.43;;;;;;;-2.32;100.00;99512.94;4354870;32;20039;-75
2022/03/08 07:13:26;;;;;;;25.50;10.13;;;;;;;-2.40;100.00;99518.16;4369460;32;20047;-76
2022/03/08 07:15:52;;;;;;;29.95;12.73;;;;;;;-2.40;100.00;99486.53;4356012;32;20066;-75
2022/03/08 07:18:19;;;;;;;30.12;12.90;;;;;;;-2.22;100.00;99515.47;4357499;32;20023;-75
2022/03/08 07:20:46;;;;;;;29.12;14.80;;;;;;;-1.96;100.00;99567.41;4367673;32;20053;-76
2022/03/08 07:23:12;;;;;;;36.95;18.70;;;;;;;-2.06;100.00;99567.53;4370407;32;20090;-75
2022/03/08 07:25:39;;;;;;;29.83;18.35;;;;;;;-2.04;100.00;99571.69;4371010;32;20102;-75
2022/03/08 07:28:06;;;;;;;35.45;18.12;;;;;;;-1.99;100.00;99573.84;4357763;32;20035;-75
2022/03/08 07:30:32;;;;;;;18.15;11.77;;;;;;;-1.92;100.00;99577.50;4369404;32;20341;-74
2022/03/08 07:32:59;;;;;;;26.83;13.60;;;;;;;-2.17;100.00;99567.78;4356431;32;20057;-78
2022/03/08 07:35:25;;;;;;;27.10;15.25;;;;;;;-2.28;100.00;99564.44;4365485;32;20062;-90
2022/03/08 07:37:52;;;;;;;28.30;12.52;;;;;;;-2.07;100.00;99579.09;4357911;32;20035;-74
2022/03/08 07:40:19;;;;;;;19.85;10.23;;;;;;;-2.35;100.00;99525.62;4371120;32;20036;-75
2022/03/08 07:42:46;;;;;;;22.37;9.77;;;;;;;-2.79;100.00;99476.34;4370564;32;20031;-75
2022/03/08 07:45:13;;;;;;;17.75;9.15;;;;;;;-2.46;100.00;99521.41;4367525;32;20073;-77
2022/03/08 07:47:40;;;;;;;19.20;10.10;;;;;;;-2.44;100.00;99527.34;4368875;32;20644;-76
2022/03/08 07:50:07;;;;;;;32.67;9.82;;;;;;;-2.04;100.00;99582.22;4357760;32;20050;-74
2022/03/08 07:52:34;;;;;;;19.92;8.98;;;;;;;-1.96;100.00;99570.06;4356018;32;20044;-75
2022/03/08 07:55:01;;;;;;;21.12;9.45;;;;;;;-1.85;100.00;99570.66;4355722;32;20027;-75
2022/03/08 07:57:28;;;;;;;21.52;8.63;;;;;;;-1.78;100.00;99576.13;4353755;32;20067;-76
2022/03/08 07:59:56;;;;;;;17.55;7.72;;;;;;;-2.18;100.00;99484.34;4354845;32;20039;-76
2022/03/08 08:02:22;;;;;;;21.95;8.70;;;;;;;-1.92;100.00;99548.47;4370210;32;20031;-75
2022/03/08 08:04:56;;;;;;;15.23;6.70;;;;;;;-1.54;100.00;99585.97;4355040;32;20403;-75
2022/03/08 08:07:22;;;;;;;8.15;4.07;;;;;;;-1.87;100.00;99530.38;4341931;33;20047;-77
2022/03/08 08:09:49;;;;;;;14.93;7.97;;;;;;;-1.66;100.00;99589.87;4341448;32;20032;-75
2022/03/08 08:12:16;;;;;;;14.40;7.18;;;;;;;-1.65;100.00;99591.53;4341522;33;20069;-76
2022/03/08 08:14:42;;;;;;;15.45;8.13;;;;;;;-1.81;100.00;99534.19;4340140;33;20044;-75
2022/03/08 08:17:10;;;;;;;10.32;5.53;;;;;;;-1.66;100.00;99542.34;4340659;33;20334;-77
2022/03/08 08:19:37;;;;;;;13.13;6.80;;;;;;;-1.21;100.00;99594.06;4292933;33;20516;-82
2022/03/08 08:22:04;;;;;;;8.38;4.03;;;;;;;-1.33;100.00;99600.59;4307960;33;20071;-82
2022/03/08 08:24:30;;;;;;;16.85;6.78;;;;;;;-1.88;100.00;99518.16;4298066;33;20067;-81
2022/03/08 08:27:08;;;;;;;3.67;2.12;;;;;;;-1.43;100.00;99605.19;4309765;33;20719;-81
2022/03/08 08:29:59;;;;;;;14.13;5.90;;;;;;;-1.56;100.00;99617.00;4312850;33;20073;-81
2022/03/08 08:32:35;;;;;;;15.40;6.28;;;;;;;-1.77;100.00;99571.66;4313454;33;20049;-82
2022/03/08 08:35:20;;;;;;;7.25;3.78;;;;;;;-1.41;100.00;99624.34;4300828;33;20499;-80
2022/03/08 08:37:52;;;;;;;14.80;6.07;;;;;;;-1.69;100.00;99595.47;4317929;33;20052;-78
2022/03/08 08:40:28;;;;;;;15.73;7.70;;;;;;;-1.43;100.00;99626.34;4304277;33;20063;-80
2022/03/08 08:42:55;;;;;;;18.35;6.07;;;;;;;-1.48;100.00;99614.41;4309013;33;20107;-78
2022/03/08 08:45:21;;;;;;;12.77;6.32;;;;;;;-1.79;100.00;99548.06;4308328;33;20032;-79
2022/03/08 08:47:50;;;;;;;18.15;8.30;;;;;;;-1.46;100.00;99617.72;4284704;33;20164;-80
2022/03/08 08:50:21;;;;;;;29.42;7.40;;;;;;;-2.32;100.00;99441.72;4324401;33;20044;-79
2022/03/08 08:52:49;;;;;;;14.87;6.10;;;;;;;-1.18;100.00;99616.69;4340116;33;20052;-80
2022/03/08 08:55:16;;;;;;;14.73;5.82;;;;;;;-1.26;100.00;99606.06;4348314;32;20099;-78
2022/03/08 08:57:47;;;;;;;20.55;6.82;;;;;;;-1.58;100.00;99563.53;4353701;32;20081;-79
2022/03/08 09:00:18;;;;;;;20.90;7.28;;;;;;;-1.26;100.00;99596.34;4353164;32;20066;-79
2022/03/08 09:02:48;;;;;;;15.20;7.55;;;;;;;-1.37;100.00;99588.69;4354856;32;20069;-76
2022/03/08 09:05:14;;;;;;;19.02;7.20;;;;;;;-1.09;100.00;99618.38;4353878;32;20177;-77
2022/03/08 09:07:45;;;;;;;19.17;6.72;;;;;;;-1.29;100.00;99555.22;4373529;32;20046;-77
2022/03/08 09:10:15;;;;;;;15.27;7.15;;;;;;;-0.75;100.00;99615.66;4372254;32;20353;-75
2022/03/08 09:12:48;;;;;;;12.68;5.72;;;;;;;-1.03;100.00;99564.88;4373283;32;20175;-76
2022/03/08 09:15:14;;;;;;;19.02;5.28;;;;;;;-0.80;100.00;99602.13;4373512;32;20043;-76
2022/03/08 09:17:41;;;;;;;13.35;5.15;;;;;;;-0.66;100.00;99603.28;4374377;32;20039;-76
2022/03/08 09:20:08;;;;;;;9.68;4.87;;;;;;;-0.60;100.00;99617.69;4374784;32;20035;-76
2022/03/08 09:22:35;;;;;;;9.55;3.42;;;;;;;-0.70;100.00;99595.81;4361520;32;20049;-73
2022/03/08 09:25:01;;;;;;;8.07;4.57;;;;;;;-0.86;100.00;99573.66;4373399;32;20473;-75
2022/03/08 09:27:30;;;;;;;10.48;4.55;;;;;;;-0.77;100.00;99591.19;4358241;32;20043;-77
2022/03/08 09:29:57;;;;;;;15.45;5.60;;;;;;;-0.86;100.00;99578.97;4374791;32;20125;-75
2022/03/08 09:32:23;;;;;;;9.18;4.53;;;;;;;-0.58;100.00;99583.94;4361792;32;20372;-75
2022/03/08 09:34:50;;;;;;;13.38;5.57;;;;;;;-0.69;100.00;99536.66;4359238;32;20095;-76
2022/03/08 09:37:16;;;;;;;10.82;4.53;;;;;;;-0.31;100.00;99581.97;4349216;32;20039;-76
2022/03/08 09:39:43;;;;;;;10.75;4.50;;;;;;;-0.10;100.00;99590.22;4372348;32;20061;-78
2022/03/08 09:42:10;;;;;;;11.15;4.43;;;;;;;-0.41;100.00;99537.16;4361065;32;20073;-76
2022/03/08 09:44:37;;;;;;;11.88;4.45;;;;;;;-0.09;100.00;99572.53;4374522;32;20397;-76
2022/03/08 09:47:03;;;;;;;8.93;3.87;;;;;;;0.07;100.00;99569.03;4372585;32;20030;-77
2022/03/08 09:49:30;;;;;;;7.35;4.00;;;;;;;-0.30;100.00;99491.00;4372719;32;20086;-77
2022/03/08 09:51:57;;;;;;;10.98;4.40;;;;;;;-0.01;100.00;99506.34;4371365;32;20057;-78
2022/03/08 09:54:23;;;;;;;8.00;4.70;;;;;;;0.35;100.00;99517.31;4373185;32;20961;-77
2022/03/08 09:56:51;;;;;;;11.95;4.78;;;;;;;0.59;100.00;99560.63;4373533;32;20132;-78
2022/03/08 09:59:18;;;;;;;17.25;6.00;;;;;;;0.60;100.00;99556.94;4369599;32;20087;-77
2022/03/08 10:01:46;;;;;;;14.40;4.70;;;;;;;0.38;100.00;99499.41;4370956;32;20044;-77
2022/03/08 10:04:18;;;;;;;16.67;7.68;;;;;;;0.47;100.00;99557.50;4370756;32;20059;-77
2022/03/08 10:06:47;;;;;;;24.70;8.32;;;;;;;0.30;100.00;99493.19;4372609;32;20043;-76
2022/03/08 10:09:19;;;;;;;19.37;5.28;;;;;;;0.89;100.00;99555.50;4372897;32;20437;-78
2022/03/08 10:11:55;;;;;;;8.75;4.15;;;;;;;0.38;100.00;99447.25;4360527;32;20039;-77
2022/03/08 10:14:38;;;;;;;10.18;3.35;;;;;;;0.53;100.00;99476.50;4373253;32;20055;-77
2022/03/08 10:17:29;;;;;;;14.20;4.65;;;;;;;0.85;100.00;99511.78;4360166;32;20039;-76
2022/03/08 10:19:56;;;;;;;20.30;5.75;;;;;;;0.67;100.00;99467.81;4357790;32;20089;-77
2022/03/08 10:22:30;;;;;;;5.20;2.40;;;;;;;1.03;100.00;99509.66;4372050;32;20043;-76
2022/03/08 10:25:20;;;;;;;7.93;3.08;;;;;;;0.70;100.00;99418.91;4365495;32;20047;-76
2022/03/08 10:27:55;;;;;;;14.27;2.37;;;;;;;1.38;100.00;99512.72;4350630;32;20039;-76
2022/03/08 10:30:25;;;;;;;5.93;3.05;;;;;;;1.56;100.00;99509.75;4358289;32;20192;-75
2022/03/08 10:32:59;;;;;;;6.78;3.15;;;;;;;1.36;100.00;99488.22;4363425;32;20173;-75
2022/03/08 10:35:28;;;;;;;7.75;3.92;;;;;;;1.19;100.00;99457.50;4371447;32;20081;-77
2022/03/08 10:38:03;;;;;;;12.85;4.72;;;;;;;1.43;100.00;99507.72;4370211;32;20077;-76
2022/03/08 10:40:32;;;;;;;10.57;3.70;;;;;;;1.41;100.00;99507.06;4345109;32;20087;-85
2022/03/08 10:43:01;;;;;;;8.68;3.80;;;;;;;1.30;100.00;99507.50;4375574;32;20058;-81
2022/03/08 10:45:29;;;;;;;8.07;3.70;;;;;;;1.61;100.00;99509.22;4378606;32;20106;-84
2022/03/08 10:47:56;;;;;;;8.88;3.65;;;;;;;1.38;100.00;99454.34;4369872;32;20128;-90
2022/03/08 10:50:26;;;;;;;6.82;3.28;;;;;;;1.88;100.00;99485.75;4357169;32;20130;-89
2022/03/08 10:52:54;;;;;;;6.68;2.83;;;;;;;2.09;100.00;99483.19;4360002;32;20129;-84
2022/03/08 10:55:26;;;;;;;5.95;3.67;;;;;;;2.01;100.00;99440.78;4374490;32;20181;-82
2022/03/08 10:58:01;;;;;;;9.30;3.15;;;;;;;2.35;100.00;99487.22;4361031;32;20069;-89
2022/03/08 11:00:30;;;;;;;10.55;4.00;;;;;;;2.22;100.00;99439.19;4378195;32;20039;-86
2022/03/08 11:03:02;;;;;;;5.20;2.75;;;;;;;2.56;100.00;99477.66;4363242;32;20110;-84
2022/03/08 11:05:32;;;;;;;11.55;3.40;;;;;;;2.28;100.00;99412.72;4373236;32;20186;-85
2022/03/08 11:07:59;;;;;;;11.57;3.37;;;;;;;2.84;100.00;99475.91;4377325;32;20142;-87
2022/03/08 11:10:40;;;;;;;11.30;4.07;;;;;;;2.87;100.00;99475.53;4374977;32;20023;-86
2022/03/08 11:13:28;;;;;;;4.05;2.72;;;;;;;2.80;100.00;99448.03;4512217;27;20166;-84
2022/03/08 11:15:57;;;;;;;9.13;3.22;;;;;;;3.08;100.00;99477.38;4373685;32;20051;-82
2022/03/08 11:18:36;;;;;;;11.32;4.18;;;;;;;3.28;100.00;99488.19;4375482;32;20110;-84
2022/03/08 11:21:09;;;;;;;9.32;3.15;;;;;;;3.00;100.00;99482.00;4388114;32;20077;-82
2022/03/08 11:23:46;;;;;;;12.55;3.55;;;;;;;2.85;100.00;99439.50;4363460;32;20038;-86